K3L4

Grand Chenier Airport

Grand Chenier, Louisiana, USA
METAR K3L4 181255Z AUTO 10004KT M1/4SM FG OVC001 09/09 A3015 RMK A01
Observed Flight Rules
Dec-18 @ 12:55 UTC (17 minutes ago) Instrument Flight Rules
Wind Visibility Clouds Conditions
100° at 4 knots 1/4 miles
  • Overcast at 100' AGL
  • Fog
Temperatures Readings
Current 9°C / 48°F
Dewpoint 9°C / 48°F
Humidity 100%
Altimeter 30.15" Hg
Pressure 1021 hPa
Elevation 2
METAR K3L4 181255Z AUTO 10004KT M1/4SM FG OVC001 09/09 A3015 RMK A01
Observed Flight Rules
Dec-18 @ 12:55 UTC
(17 minutes ago)
LIFR
Wind Visibility
100° at 4 knots 1/4 miles
Clouds
  • Overcast at 100' AGL
Conditions
  • Fog
Temperature Dewpoint
9°C / 48°F 9°C / 48°F
Humidity Altimeter Pressure
100% 30.15" Hg 1021 hPa